Monte Aprazivel, Brazil
Current Conditions -  °F | °C
As of 6:00 PM on Saturday 25 Oct 2014 (Local Time) from SBSR Reporting Station
Light Rain Light Rain  
Wind Chill: 72°   Ceiling: 1000
Heat Index: 72°   Visibility: 5mi
Dew Point: 68°   Wind: 5mph
Humidity: 88%   Direction: 70°ENE
Pressure: 30"   Gusts: NA
Location:  20.78°S, 49.71°W
Report Text: SBSR 252000Z 07004KT 8000 -RA BKN010 OVC070 22/20 Q1016
Loading
Personal Weather Stations






























Interactive Weather Map
Tropical Storm Tracking
New forecast layout! Learn more

10-Day Weather Forecast

Advertisements
Track Severe Weather on mobile